Elon, NC

02:38 EDT le 28 juillet 2016 (GMT -0400)
Burlington | | Change Station
Avis météorologiques actifs: Heat Advisory

Alt. 653 ft 36.10 °N, 79.47 °W | Updated 8 seconds ago

Clear
Ciel dégagé
72.7 ° F
Paraît 72.7 ° F
N
0.0
Vent Variable Vent de NE
Gusts 0.0 mph

Aujourd'hui
Haut(e) -- | Bas -- ° F
--% Risque de précip.
Hier
Haut(e) -- | Bas -- ° F
Precip. -- pouce
Pression 29.94 pouce
Visibilité 10.0 Miles terrestres
Nuages Ciel dégagé
Point de rosée 72 ° F
Humidité 97%
Précipitations 0.00 pouce
Profondeur de la couche neigeuse Non disponible.
6:22 AM 8:26 PM
Lune descendante, 35% visible
METAR KBUY 280554Z AUTO 00000KT 10SM CLR 23/22 A2996 RMK AO2 SLP137 60055 T02330222 10267 20228 58004
Pression 29.94 pouce
Visibilité 10.0 Miles terrestres
Nuages Ciel dégagé
Point de rosée 72 ° F
Humidité 97%
Précipitations 0.00 pouce
Profondeur de la couche neigeuse Non disponible.
6:22 AM 8:26 PM
Lune descendante, 35% visible
METAR KBUY 280554Z AUTO 00000KT 10SM CLR 23/22 A2996 RMK AO2 SLP137 60055 T02330222 10267 20228 58004

10-Day Weather Forecast

Almanac

Astronomie

Jul. 28, 2016 Lever Coucher
Temps réel
Crépuscule civil
Crépuscule nautique
Crépuscule astronomique
Lune
Durée de lumière visible
Longueur du jour
Tomorrow will be .
, % of the Moon is Illuminated

Extrêmes aujourd'hui

State Highs State Lows

Community

WunderPhotos

Upload Photos

1,928,064 Photos téléchargées !

WunderBlog® & News

Nearby

Qualité de l'air

  Qualité de l'air Indice de la qualité de l'air Polluant
Not available.

Épaisseur de neige

Station Depth Altitude

Activité sismique

Ville Distance Mag. Time & Date
Minimum magnitude displayed is 2.5.

Températures des eaux côtières

Lieu Température

Stations

Stations météo à proximité

Emplacement de la station Température Refroidissement éolien Point de rosée Humidité Vent Precip. Alt. Mise à jour Type
                   

Watches & Warnings

Heat Advisory
Issued: 20:52 EDT Jul. 27, 2016 – National Weather Service

... Heat advisory remains in effect from noon to 8 PM EDT
Thursday...

* temperatures... highs will be in the mid to upper 90s.

* Heat indices... 105 to 109 degrees.

* Impacts... the accumulative effects of the heat and humidity
will lead to an increased risk of heat related illnesses...
especially among vulnerable individuals such as the sick...
the elderly... those exerting themselves outdoors... and those
without air conditioning.

Precautionary/preparedness actions...

A heat advisory means that hot temperatures and high humidity
will create a situation in which heat illnesses are possible.
Drink plenty of fluids... stay in an air-conditioned room... stay
out of the sun... and check up on relatives and neighbors.

A heat advisory means that a period of hot temperatures is
expected. Hot temperatures and high humidity will create a
situation in which heat illnesses are possible. Drink plenty of
fluids... stay in an air-conditioned room... stay out of the
sun... and check up on relatives and neighbors.